createdAt,value
2023-12-09T00:00:41.660Z,29.73
2023-12-09T00:03:08.799Z,29.23
2023-12-09T00:05:36.009Z,28.37
2023-12-09T00:08:02.634Z,31.10
2023-12-09T00:10:29.412Z,31.60
2023-12-09T00:12:56.235Z,30.07
2023-12-09T00:15:22.819Z,33.90
2023-12-09T00:17:49.418Z,29.90
2023-12-09T00:20:17.146Z,29.30
2023-12-09T00:22:43.725Z,29.10
2023-12-09T00:25:10.409Z,29.73
2023-12-09T00:27:36.994Z,28.67
2023-12-09T00:30:03.639Z,30.50
2023-12-09T00:32:30.457Z,30.63
2023-12-09T00:34:57.289Z,29.53
2023-12-09T00:37:24.064Z,29.53
2023-12-09T00:39:50.738Z,30.93
2023-12-09T00:42:18.087Z,30.83
2023-12-09T00:44:44.689Z,29.93
2023-12-09T00:47:11.223Z,30.33
2023-12-09T00:49:39.102Z,32.40
2023-12-09T00:52:05.760Z,31.30
2023-12-09T00:54:32.304Z,30.10
2023-12-09T00:56:58.915Z,31.17
2023-12-09T00:59:25.480Z,29.47
2023-12-09T01:01:52.372Z,29.90
2023-12-09T01:04:19.351Z,29.13
2023-12-09T01:06:46.015Z,31.17
2023-12-09T01:09:13.029Z,30.03
2023-12-09T01:11:39.753Z,29.77
2023-12-09T01:14:06.364Z,30.53
2023-12-09T01:16:32.972Z,32.03
2023-12-09T01:18:59.562Z,30.13
2023-12-09T01:21:26.222Z,29.53
2023-12-09T01:23:52.827Z,29.97
2023-12-09T01:26:19.445Z,30.97
2023-12-09T01:28:45.995Z,29.97
2023-12-09T01:31:12.561Z,30.47
2023-12-09T01:33:39.537Z,32.83
2023-12-09T01:36:06.387Z,31.27
2023-12-09T01:38:32.964Z,33.47
2023-12-09T01:40:59.492Z,31.53
2023-12-09T01:43:26.058Z,31.07
2023-12-09T01:45:53.109Z,32.23
2023-12-09T01:48:20.312Z,33.10
2023-12-09T01:50:47.068Z,30.97
2023-12-09T01:53:13.625Z,31.20
2023-12-09T01:55:40.387Z,32.40
2023-12-09T01:58:06.936Z,30.73
2023-12-09T02:00:33.946Z,32.50
2023-12-09T02:03:00.848Z,32.10
2023-12-09T02:05:27.899Z,30.50
2023-12-09T02:07:54.501Z,33.27
2023-12-09T02:10:21.061Z,31.77
2023-12-09T02:12:53.617Z,31.83
2023-12-09T02:15:23.747Z,33.90
2023-12-09T02:18:16.928Z,32.00
2023-12-09T02:20:43.555Z,35.03
2023-12-09T02:23:10.506Z,31.97
2023-12-09T02:25:37.429Z,33.27
2023-12-09T02:28:05.547Z,33.10
2023-12-09T02:30:44.560Z,31.30
2023-12-09T02:33:11.508Z,34.03
2023-12-09T02:35:39.302Z,31.53
2023-12-09T02:38:05.847Z,33.90
2023-12-09T02:40:32.403Z,34.30
2023-12-09T02:42:58.969Z,34.00
2023-12-09T02:45:25.580Z,34.30
2023-12-09T02:47:52.287Z,33.53
2023-12-09T02:50:18.913Z,33.90
2023-12-09T02:52:45.451Z,33.57
2023-12-09T02:55:11.982Z,36.03
2023-12-09T02:57:38.529Z,34.03
2023-12-09T03:00:07.941Z,33.03
2023-12-09T03:02:34.662Z,33.03
2023-12-09T03:05:01.257Z,34.27
2023-12-09T03:07:28.862Z,36.43
2023-12-09T03:09:55.430Z,34.40
2023-12-09T03:12:21.989Z,34.33
2023-12-09T03:14:48.545Z,36.13
2023-12-09T03:17:15.093Z,33.70
2023-12-09T03:19:41.828Z,33.23
2023-12-09T03:22:08.511Z,34.53
2023-12-09T03:24:35.117Z,34.13
2023-12-09T03:27:01.743Z,34.10
2023-12-09T03:29:28.345Z,33.50
2023-12-09T03:31:54.944Z,32.83
2023-12-09T03:34:21.780Z,32.23
2023-12-09T03:36:48.405Z,33.13
2023-12-09T03:39:15.034Z,31.83
2023-12-09T03:41:41.641Z,32.97
2023-12-09T03:44:08.211Z,32.53
2023-12-09T03:46:34.783Z,32.30
2023-12-09T03:49:01.487Z,29.47
2023-12-09T03:51:28.298Z,30.87
2023-12-09T03:53:55.415Z,32.07
2023-12-09T03:56:23.090Z,31.87
2023-12-09T03:58:49.858Z,31.57
2023-12-09T04:01:16.467Z,31.77
2023-12-09T04:03:44.207Z,30.40
2023-12-09T04:06:10.850Z,32.50
2023-12-09T04:08:37.412Z,31.77
2023-12-09T04:11:04.921Z,32.43
2023-12-09T04:13:31.535Z,30.50
2023-12-09T04:15:58.039Z,30.43
2023-12-09T04:18:24.722Z,31.87
2023-12-09T04:20:51.352Z,40.23
2023-12-09T04:23:17.973Z,39.93
2023-12-09T04:25:44.515Z,37.30
2023-12-09T04:28:11.074Z,39.73
2023-12-09T04:30:38.544Z,36.83
2023-12-09T04:33:05.326Z,36.77
2023-12-09T04:35:32.099Z,40.33
2023-12-09T04:37:58.640Z,41.60
2023-12-09T04:40:25.259Z,41.50
2023-12-09T04:42:51.779Z,42.03
2023-12-09T04:45:19.461Z,37.17
2023-12-09T04:47:46.104Z,36.63
2023-12-09T04:50:12.696Z,36.10
2023-12-09T04:52:39.274Z,39.27
2023-12-09T04:55:06.034Z,38.20
2023-12-09T04:57:32.822Z,38.27
2023-12-09T04:59:59.644Z,36.37
2023-12-09T05:02:26.707Z,35.20
2023-12-09T05:04:54.268Z,35.27
2023-12-09T05:07:27.822Z,34.77
2023-12-09T05:09:54.414Z,38.40
2023-12-09T05:12:21.056Z,37.90
2023-12-09T05:14:47.626Z,35.87
2023-12-09T05:17:14.251Z,38.73
2023-12-09T05:19:41.371Z,37.30
2023-12-09T05:22:08.073Z,37.20
2023-12-09T05:24:34.640Z,33.23
2023-12-09T05:27:01.587Z,35.33
2023-12-09T05:29:28.180Z,34.53
2023-12-09T05:31:54.725Z,34.13
2023-12-09T05:34:21.330Z,38.13
2023-12-09T05:36:47.874Z,35.97
2023-12-09T05:39:15.458Z,33.20
2023-12-09T05:41:43.236Z,34.90
2023-12-09T05:44:09.839Z,34.67
2023-12-09T05:46:37.728Z,35.93
2023-12-09T05:49:04.520Z,36.57
2023-12-09T05:51:31.386Z,36.03
2023-12-09T05:53:58.128Z,36.50
2023-12-09T05:56:24.712Z,37.13
2023-12-09T05:58:51.275Z,36.67
2023-12-09T06:01:18.288Z,38.00
2023-12-09T06:03:44.946Z,37.10
2023-12-09T06:06:11.692Z,39.13
2023-12-09T06:08:38.564Z,36.63
2023-12-09T06:11:05.153Z,36.20
2023-12-09T06:13:32.209Z,36.93
2023-12-09T06:15:58.775Z,34.37
2023-12-09T06:18:25.868Z,36.80
2023-12-09T06:20:52.480Z,40.00
2023-12-09T06:23:19.129Z,36.83
2023-12-09T06:25:45.767Z,37.37
2023-12-09T06:28:12.272Z,34.97
2023-12-09T06:30:39.012Z,36.50
2023-12-09T06:33:05.927Z,39.90
2023-12-09T06:35:32.569Z,37.57
2023-12-09T06:37:59.154Z,36.77
2023-12-09T06:40:26.165Z,37.87
2023-12-09T06:42:52.718Z,39.33
2023-12-09T06:45:19.504Z,37.07
2023-12-09T06:47:46.355Z,36.77
2023-12-09T06:50:13.065Z,37.50
2023-12-09T06:52:40.809Z,38.17
2023-12-09T06:55:07.704Z,36.83
2023-12-09T06:57:34.772Z,35.23
2023-12-09T07:00:01.865Z,38.23
2023-12-09T07:02:38.212Z,35.73
2023-12-09T07:05:14.694Z,34.87
2023-12-09T07:07:42.072Z,36.70
2023-12-09T07:10:09.190Z,36.70
2023-12-09T07:12:35.785Z,33.57
2023-12-09T07:15:02.487Z,35.80
2023-12-09T07:17:29.073Z,34.30
2023-12-09T07:19:56.616Z,34.03
2023-12-09T07:22:26.443Z,34.93
2023-12-09T07:24:53.206Z,35.40
2023-12-09T07:27:19.816Z,34.87
2023-12-09T07:29:46.426Z,35.30
2023-12-09T07:32:13.462Z,34.87
2023-12-09T07:34:40.104Z,34.70
2023-12-09T07:37:06.765Z,35.77
2023-12-09T07:39:33.332Z,33.77
2023-12-09T07:42:00.309Z,35.00
2023-12-09T07:44:26.993Z,37.73
2023-12-09T07:46:53.527Z,37.30
2023-12-09T07:49:20.165Z,36.83
2023-12-09T07:51:46.785Z,37.30
2023-12-09T07:54:13.426Z,38.00
2023-12-09T07:56:39.993Z,40.57
2023-12-09T07:59:06.607Z,39.53
2023-12-09T08:01:33.137Z,37.87
2023-12-09T08:03:59.869Z,36.93
2023-12-09T08:06:26.521Z,34.40
2023-12-09T08:08:53.178Z,36.17
2023-12-09T08:11:22.688Z,34.20
2023-12-09T08:13:49.277Z,34.10
2023-12-09T08:16:16.282Z,34.27
2023-12-09T08:18:44.579Z,35.50
2023-12-09T08:21:11.554Z,37.87
2023-12-09T08:23:39.603Z,36.13
2023-12-09T08:26:06.288Z,36.10
2023-12-09T08:28:33.039Z,37.90
2023-12-09T08:30:59.986Z,41.00
2023-12-09T08:33:26.749Z,37.43
2023-12-09T08:35:53.439Z,39.23
2023-12-09T08:38:19.986Z,38.23
2023-12-09T08:40:46.664Z,41.83
2023-12-09T08:43:13.260Z,40.30
2023-12-09T08:45:39.833Z,41.07
2023-12-09T08:48:06.883Z,41.23
2023-12-09T08:50:34.049Z,41.53
2023-12-09T08:53:00.651Z,39.70
2023-12-09T08:55:27.179Z,40.97
2023-12-09T08:57:54.066Z,41.57
2023-12-09T09:00:22.535Z,38.90
2023-12-09T09:02:49.786Z,44.17
2023-12-09T09:05:16.684Z,43.03
2023-12-09T09:07:46.536Z,44.23
2023-12-09T09:10:13.195Z,43.60
2023-12-09T09:12:39.792Z,41.47
2023-12-09T09:15:08.419Z,41.77
2023-12-09T09:17:36.671Z,40.90
2023-12-09T09:20:04.584Z,41.30
2023-12-09T09:22:31.195Z,42.10
2023-12-09T09:24:59.475Z,42.00
2023-12-09T09:27:26.948Z,42.17
2023-12-09T09:29:54.382Z,42.20
2023-12-09T09:32:21.193Z,39.63
2023-12-09T09:34:47.862Z,40.83
2023-12-09T09:37:15.845Z,41.63
2023-12-09T09:39:42.558Z,42.03
2023-12-09T09:42:20.210Z,42.47
2023-12-09T09:45:16.137Z,42.70
2023-12-09T09:47:42.906Z,44.03
2023-12-09T09:50:09.855Z,40.93
2023-12-09T09:52:37.107Z,43.07
2023-12-09T09:55:04.718Z,41.87
2023-12-09T09:57:31.414Z,42.20
2023-12-09T09:59:59.284Z,41.63
2023-12-09T10:02:26.685Z,39.87
2023-12-09T10:04:53.760Z,39.57
2023-12-09T10:07:20.542Z,35.07
2023-12-09T10:09:47.709Z,36.30
2023-12-09T10:12:14.798Z,36.13
2023-12-09T10:14:41.394Z,35.30
2023-12-09T10:17:07.988Z,36.20
2023-12-09T10:19:35.217Z,35.47
2023-12-09T10:22:02.168Z,36.57
2023-12-09T10:24:28.783Z,36.80
2023-12-09T10:26:55.446Z,38.23
2023-12-09T10:29:21.988Z,36.47
2023-12-09T10:31:48.513Z,37.93
2023-12-09T10:34:15.684Z,37.43
2023-12-09T10:36:42.312Z,35.17
2023-12-09T10:39:10.199Z,36.90
2023-12-09T10:41:36.891Z,37.10
2023-12-09T10:44:03.934Z,38.23
2023-12-09T10:46:30.940Z,37.30
2023-12-09T10:48:57.603Z,37.53
2023-12-09T10:51:24.661Z,36.17
2023-12-09T10:53:51.374Z,36.97
2023-12-09T10:56:18.011Z,35.07
2023-12-09T10:58:44.905Z,33.47
2023-12-09T11:01:11.520Z,32.83
2023-12-09T11:03:38.336Z,31.27
2023-12-09T11:06:05.487Z,29.03
2023-12-09T11:08:32.121Z,26.37
2023-12-09T11:10:58.841Z,24.20
2023-12-09T11:13:25.855Z,24.13
2023-12-09T11:16:11.582Z,21.60
2023-12-09T11:18:47.663Z,21.33
2023-12-09T11:21:15.271Z,21.97
2023-12-09T11:23:43.540Z,19.63
2023-12-09T11:26:14.058Z,18.50
2023-12-09T11:28:40.631Z,18.13
2023-12-09T11:31:08.016Z,20.50
2023-12-09T11:33:34.633Z,20.13
2023-12-09T11:36:01.489Z,19.50
2023-12-09T11:38:29.011Z,19.43
2023-12-09T11:40:55.583Z,21.13
2023-12-09T11:43:22.724Z,19.83
2023-12-09T11:45:49.305Z,20.10
2023-12-09T11:48:16.622Z,19.40
2023-12-09T11:50:43.232Z,20.77
2023-12-09T11:53:09.849Z,20.07
2023-12-09T11:55:36.620Z,19.93
2023-12-09T11:58:04.827Z,21.57
2023-12-09T12:00:31.430Z,19.00
2023-12-09T12:02:58.068Z,18.70
2023-12-09T12:05:24.954Z,18.37
2023-12-09T12:07:51.543Z,18.90
2023-12-09T12:10:18.676Z,18.23
2023-12-09T12:12:45.889Z,18.40
2023-12-09T12:15:12.718Z,18.20
2023-12-09T12:17:40.340Z,18.90
2023-12-09T12:20:07.810Z,18.10
2023-12-09T12:22:34.559Z,19.00
2023-12-09T12:25:01.121Z,18.47
2023-12-09T12:27:28.169Z,18.23
2023-12-09T12:29:54.759Z,18.37
2023-12-09T12:32:21.428Z,19.87
2023-12-09T12:34:48.407Z,17.50
2023-12-09T12:37:14.987Z,18.03
2023-12-09T12:39:41.618Z,18.37
2023-12-09T12:42:09.710Z,18.23
2023-12-09T12:44:37.015Z,18.47
2023-12-09T12:47:03.686Z,17.67
2023-12-09T12:49:36.595Z,18.30
2023-12-09T12:52:04.560Z,19.03
2023-12-09T12:54:31.219Z,18.80
2023-12-09T12:56:57.870Z,18.90
2023-12-09T12:59:24.407Z,18.70
2023-12-09T13:01:51.215Z,17.67
2023-12-09T13:04:17.851Z,17.80
2023-12-09T13:06:44.622Z,18.33
2023-12-09T13:09:13.765Z,19.97
2023-12-09T13:11:40.315Z,19.20
2023-12-09T13:14:06.921Z,18.13
2023-12-09T13:16:33.553Z,20.07
2023-12-09T13:19:00.326Z,19.67
2023-12-09T13:21:27.052Z,19.87
2023-12-09T13:23:53.794Z,21.00
2023-12-09T13:26:20.441Z,20.83
2023-12-09T13:28:47.159Z,25.47
2023-12-09T13:31:15.374Z,23.10
2023-12-09T13:33:42.296Z,24.77
2023-12-09T13:36:10.916Z,24.93
2023-12-09T13:38:37.519Z,26.20
2023-12-09T13:41:04.451Z,24.63
2023-12-09T13:43:31.096Z,24.97
2023-12-09T13:45:57.723Z,22.97
2023-12-09T13:48:24.367Z,21.70
2023-12-09T13:50:51.187Z,20.93
2023-12-09T13:53:18.268Z,21.50
2023-12-09T13:55:45.257Z,20.40
2023-12-09T13:58:11.764Z,20.20
2023-12-09T14:00:38.449Z,20.97
2023-12-09T14:03:05.094Z,22.63
2023-12-09T14:05:31.819Z,23.70
2023-12-09T14:07:58.491Z,23.50
2023-12-09T14:10:25.179Z,24.37
2023-12-09T14:12:51.859Z,26.13
2023-12-09T14:15:18.478Z,23.40
2023-12-09T14:17:45.471Z,25.90
2023-12-09T14:20:13.794Z,25.40
2023-12-09T14:22:40.477Z,27.83
2023-12-09T14:25:07.344Z,25.40
2023-12-09T14:27:35.509Z,25.43
2023-12-09T14:30:02.214Z,26.63
2023-12-09T14:32:29.140Z,28.23
2023-12-09T14:34:56.440Z,26.70
2023-12-09T14:37:23.192Z,29.97
2023-12-09T14:39:49.810Z,29.23
2023-12-09T14:42:16.366Z,27.90
2023-12-09T14:44:43.005Z,27.30
2023-12-09T14:47:09.635Z,27.80
2023-12-09T14:49:36.373Z,26.27
2023-12-09T14:52:03.154Z,25.00
2023-12-09T14:54:30.320Z,25.67
2023-12-09T14:56:57.061Z,27.43
2023-12-09T14:59:23.660Z,25.47
2023-12-09T15:01:50.285Z,26.37
2023-12-09T15:04:17.009Z,23.90
2023-12-09T15:06:45.031Z,25.40
2023-12-09T15:09:13.897Z,25.73
2023-12-09T15:11:43.595Z,25.70
2023-12-09T15:14:10.329Z,27.80
2023-12-09T15:16:36.972Z,27.03
2023-12-09T15:19:04.331Z,27.63
2023-12-09T15:21:31.305Z,26.50
2023-12-09T15:23:58.023Z,27.27
2023-12-09T15:26:24.550Z,25.77
2023-12-09T15:28:54.630Z,25.53
2023-12-09T15:31:21.612Z,26.83
2023-12-09T15:33:48.381Z,26.53
2023-12-09T15:36:15.042Z,25.07
2023-12-09T15:38:42.121Z,25.13
2023-12-09T15:41:09.026Z,23.83
2023-12-09T15:43:35.915Z,25.60
2023-12-09T15:46:02.561Z,25.07
2023-12-09T15:48:29.175Z,24.50
2023-12-09T15:50:55.858Z,23.77
2023-12-09T15:53:22.487Z,23.67
2023-12-09T15:55:49.313Z,23.43
2023-12-09T15:58:16.267Z,23.37
2023-12-09T16:00:43.023Z,21.57
2023-12-09T16:03:12.131Z,26.05
2023-12-09T16:05:38.831Z,31.05
2023-12-09T16:08:05.589Z,33.95
2023-12-09T16:10:33.264Z,27.67
2023-12-09T16:13:00.527Z,24.97
2023-12-09T16:15:27.215Z,24.55
2023-12-09T16:17:54.885Z,30.83
2023-12-09T16:20:22.108Z,33.17
2023-12-09T16:22:48.805Z,29.03
2023-12-09T16:25:15.538Z,24.70
2023-12-09T16:27:42.229Z,23.87
2023-12-09T16:30:09.188Z,24.10
2023-12-09T16:32:35.870Z,23.13
2023-12-09T16:35:03.249Z,31.00
2023-12-09T16:37:29.829Z,26.17
2023-12-09T16:39:56.508Z,29.92
2023-12-09T16:42:23.361Z,26.30
2023-12-09T16:44:50.002Z,33.78
2023-12-09T16:47:17.244Z,28.23
2023-12-09T16:49:43.928Z,26.23
2023-12-09T16:52:10.702Z,25.27
2023-12-09T16:54:37.354Z,23.97
2023-12-09T16:57:04.180Z,25.03
2023-12-09T16:59:30.857Z,25.67
2023-12-09T17:01:58.845Z,29.00
2023-12-09T17:04:25.878Z,33.50
2023-12-09T17:06:54.570Z,28.73
2023-12-09T17:09:24.542Z,31.57
2023-12-09T17:11:53.062Z,31.60
2023-12-09T17:14:20.124Z,31.93
2023-12-09T17:16:46.745Z,30.33
2023-12-09T17:19:13.938Z,29.67
2023-12-09T17:21:41.214Z,29.97
2023-12-09T17:24:07.986Z,27.40
2023-12-09T17:26:36.126Z,29.73
2023-12-09T17:29:02.822Z,31.50
2023-12-09T17:31:29.572Z,32.13
2023-12-09T17:33:56.488Z,33.50
2023-12-09T17:36:26.965Z,31.80
2023-12-09T17:38:54.165Z,32.00
2023-12-09T17:41:21.800Z,29.67
2023-12-09T17:43:49.930Z,28.90
2023-12-09T17:46:17.024Z,28.23
2023-12-09T17:48:43.848Z,26.57
2023-12-09T17:51:10.714Z,25.60
2023-12-09T17:53:37.497Z,29.33
2023-12-09T17:56:04.221Z,29.17
2023-12-09T17:58:31.656Z,30.97
2023-12-09T18:00:58.373Z,31.47
2023-12-09T18:03:25.308Z,31.50
2023-12-09T18:05:53.206Z,31.60
2023-12-09T18:08:19.988Z,34.17
2023-12-09T18:10:46.541Z,31.33
2023-12-09T18:13:14.041Z,34.23
2023-12-09T18:15:44.084Z,33.00
2023-12-09T18:18:11.612Z,30.17
2023-12-09T18:20:38.362Z,32.97
2023-12-09T18:23:05.014Z,29.87
2023-12-09T18:25:31.925Z,31.43
2023-12-09T18:27:58.489Z,32.27
2023-12-09T18:30:25.048Z,32.83
2023-12-09T18:32:51.715Z,30.73
2023-12-09T18:35:19.025Z,33.30
2023-12-09T18:37:46.388Z,31.33
2023-12-09T18:40:12.980Z,32.70
2023-12-09T18:42:39.832Z,31.87
2023-12-09T18:45:06.794Z,31.10
2023-12-09T18:47:35.256Z,30.17
2023-12-09T18:50:01.888Z,28.73
2023-12-09T18:52:28.758Z,30.00
2023-12-09T18:54:55.561Z,29.67
2023-12-09T18:57:22.059Z,32.30
2023-12-09T18:59:48.720Z,30.40
2023-12-09T19:02:15.815Z,31.70
2023-12-09T19:04:45.633Z,31.33
2023-12-09T19:07:12.435Z,31.57
2023-12-09T19:09:39.113Z,32.20
2023-12-09T19:12:06.095Z,30.03
2023-12-09T19:14:32.690Z,33.90
2023-12-09T19:16:59.454Z,37.03
2023-12-09T19:19:26.805Z,31.53
2023-12-09T19:21:53.428Z,34.00
2023-12-09T19:24:19.992Z,37.87
2023-12-09T19:26:46.584Z,36.83
2023-12-09T19:29:17.237Z,38.00
2023-12-09T19:31:47.293Z,41.40
2023-12-09T19:34:14.049Z,41.47
2023-12-09T19:36:44.807Z,47.03
2023-12-09T19:39:11.809Z,42.83
2023-12-09T19:41:38.460Z,44.40
2023-12-09T19:44:05.109Z,44.13
2023-12-09T19:46:31.739Z,43.53
2023-12-09T19:48:58.407Z,43.13
2023-12-09T19:51:25.149Z,43.43
2023-12-09T19:53:51.659Z,41.70
2023-12-09T19:56:18.300Z,44.07
2023-12-09T19:58:44.820Z,43.67
2023-12-09T20:01:11.588Z,43.90
2023-12-09T20:03:38.330Z,43.80
2023-12-09T20:06:05.647Z,42.57
2023-12-09T20:08:32.281Z,44.10
2023-12-09T20:11:00.556Z,44.53
2023-12-09T20:13:27.106Z,40.70
2023-12-09T20:15:54.200Z,42.00
2023-12-09T20:18:20.907Z,42.30
2023-12-09T20:20:47.862Z,43.30
2023-12-09T20:23:14.945Z,42.27
2023-12-09T20:25:41.571Z,40.67
2023-12-09T20:28:08.348Z,42.13
2023-12-09T20:30:39.125Z,43.23
2023-12-09T20:33:07.680Z,42.37
2023-12-09T20:35:34.527Z,43.33
2023-12-09T20:38:02.906Z,42.50
2023-12-09T20:40:29.552Z,42.13
2023-12-09T20:42:56.233Z,44.40
2023-12-09T20:45:22.835Z,41.97
2023-12-09T20:47:49.515Z,44.10
2023-12-09T20:50:16.191Z,42.53
2023-12-09T20:52:42.753Z,43.57
2023-12-09T20:55:09.797Z,46.37
2023-12-09T20:57:36.367Z,43.70
2023-12-09T21:00:03.026Z,41.63
2023-12-09T21:02:30.115Z,43.60
2023-12-09T21:04:57.016Z,43.27
2023-12-09T21:07:23.690Z,43.43
2023-12-09T21:09:50.277Z,44.77
2023-12-09T21:12:16.946Z,41.13
2023-12-09T21:14:43.515Z,43.00
2023-12-09T21:17:10.615Z,42.07
2023-12-09T21:19:37.354Z,42.97
2023-12-09T21:22:06.319Z,43.90
2023-12-09T21:24:35.413Z,41.00
2023-12-09T21:27:02.037Z,42.20
2023-12-09T21:29:28.817Z,42.67
2023-12-09T21:31:55.470Z,39.03
2023-12-09T21:34:22.065Z,42.10
2023-12-09T21:36:48.824Z,43.50
2023-12-09T21:39:15.740Z,44.80
2023-12-09T21:41:42.301Z,43.37
2023-12-09T21:44:09.340Z,44.83
2023-12-09T21:46:35.902Z,46.27
2023-12-09T21:49:02.660Z,45.13
2023-12-09T21:51:30.723Z,47.93
2023-12-09T21:53:57.298Z,50.70
2023-12-09T21:56:24.370Z,48.57
2023-12-09T21:58:51.150Z,50.47
2023-12-09T22:01:17.994Z,50.67
2023-12-09T22:03:44.649Z,47.57
2023-12-09T22:06:11.495Z,48.63
2023-12-09T22:08:38.098Z,50.40
2023-12-09T22:11:04.933Z,48.73
2023-12-09T22:13:33.035Z,46.43
2023-12-09T22:15:59.772Z,47.03
2023-12-09T22:18:26.560Z,46.87
2023-12-09T22:20:53.183Z,48.37
2023-12-09T22:23:19.763Z,48.57
2023-12-09T22:25:46.280Z,47.20
2023-12-09T22:28:12.902Z,47.10
2023-12-09T22:30:39.593Z,45.30
2023-12-09T22:33:06.399Z,46.40
2023-12-09T22:35:34.065Z,47.53
2023-12-09T22:38:00.634Z,44.57
2023-12-09T22:40:27.986Z,46.13
2023-12-09T22:42:55.968Z,46.73
2023-12-09T22:45:22.584Z,43.93
2023-12-09T22:47:49.301Z,47.90
2023-12-09T22:50:15.980Z,45.00
2023-12-09T22:52:42.478Z,47.27
2023-12-09T22:55:09.110Z,49.23
2023-12-09T22:57:35.665Z,45.17
2023-12-09T23:00:02.227Z,48.90
2023-12-09T23:02:29.162Z,48.93
2023-12-09T23:04:55.853Z,45.70
2023-12-09T23:07:22.417Z,47.00
2023-12-09T23:09:51.369Z,48.53
2023-12-09T23:12:18.121Z,45.17
2023-12-09T23:14:44.667Z,45.53
2023-12-09T23:17:11.269Z,43.93
2023-12-09T23:19:37.843Z,44.33
2023-12-09T23:22:04.923Z,44.30
2023-12-09T23:24:32.788Z,43.37
2023-12-09T23:26:59.383Z,41.20
2023-12-09T23:29:25.956Z,40.97
2023-12-09T23:31:52.487Z,39.97
2023-12-09T23:34:21.246Z,39.27
2023-12-09T23:36:50.066Z,40.47
2023-12-09T23:39:16.690Z,43.23
2023-12-09T23:41:43.292Z,42.40
2023-12-09T23:44:09.884Z,42.67
2023-12-09T23:46:36.457Z,46.43
2023-12-09T23:49:03.341Z,43.77
2023-12-09T23:51:29.962Z,45.93
2023-12-09T23:53:56.540Z,44.70
2023-12-09T23:56:24.352Z,42.60
2023-12-09T23:58:50.917Z,44.63
